Time;durP1;ratioP1;P1;durP2;ratioP2;P2;SDS_P1;SDS_P2;PMS_P1;PMS_P2;Temp;Humidity;BMP_temperature;BMP_pressure;BME280_temperature;BME280_humidity;BME280_pressure;Samples;Min_cycle;Max_cycle;Signal;HPM_P1;HPM_P2
2022/05/28 00:00:30;;;;;;;1.13;1.10;;;;;;;17.39;67.82;95877.72;4958856;29;20259;-86
2022/05/28 00:02:57;;;;;;;1.15;1.05;;;;;;;17.39;67.86;95879.53;4957651;28;20229;-82
2022/05/28 00:05:23;;;;;;;1.38;1.27;;;;;;;17.39;67.58;95882.94;4959007;28;20201;-85
2022/05/28 00:07:49;;;;;;;1.42;1.33;;;;;;;17.34;68.01;95879.34;4958468;29;20629;-85
2022/05/28 00:10:21;;;;;;;2.05;1.38;;;;;;;17.31;68.03;95874.59;4958467;29;20204;-85
2022/05/28 00:12:48;;;;;;;1.15;1.15;;;;;;;17.30;67.42;95871.19;4957554;28;20716;-84
2022/05/28 00:15:16;;;;;;;1.15;1.15;;;;;;;17.31;67.52;95879.81;4958456;29;20196;-84
2022/05/28 00:17:42;;;;;;;1.30;1.20;;;;;;;17.29;67.10;95871.41;4956335;29;20201;-84
2022/05/28 00:20:10;;;;;;;1.30;1.20;;;;;;;17.27;67.00;95861.19;4958029;29;20542;-85
2022/05/28 00:22:38;;;;;;;1.38;1.27;;;;;;;17.26;67.07;95867.41;4956607;28;20574;-84
2022/05/28 00:25:06;;;;;;;1.30;1.20;;;;;;;16.96;67.21;95874.19;4950046;29;20231;-83
2022/05/28 00:27:33;;;;;;;1.25;1.23;;;;;;;16.97;67.06;95867.97;4956718;28;20570;-83
2022/05/28 00:29:59;;;;;;;1.50;1.40;;;;;;;16.91;67.29;95867.03;4957675;29;20197;-85
2022/05/28 00:32:27;;;;;;;1.40;1.30;;;;;;;16.91;67.48;95870.44;4955719;28;20205;-83
2022/05/28 00:34:54;;;;;;;1.40;1.30;;;;;;;16.87;67.81;95865.84;4957000;29;20232;-84
2022/05/28 00:37:20;;;;;;;2.42;1.20;;;;;;;16.94;67.52;95864.00;4957461;29;20209;-83
2022/05/28 00:39:46;;;;;;;1.98;1.33;;;;;;;16.95;67.06;95855.19;4958566;29;20668;-84
2022/05/28 00:42:13;;;;;;;1.40;1.17;;;;;;;16.99;66.91;95852.97;4956250;28;20205;-85
2022/05/28 00:44:39;;;;;;;1.73;1.30;;;;;;;16.98;67.23;95852.16;4957063;29;20275;-85
2022/05/28 00:47:06;;;;;;;4.72;1.40;;;;;;;17.04;67.00;95855.75;4956744;29;20229;-82
2022/05/28 00:49:34;;;;;;;1.30;1.20;;;;;;;17.01;66.77;95851.75;4956962;28;20208;-84
2022/05/28 00:52:03;;;;;;;1.90;1.50;;;;;;;17.00;66.69;95854.56;4957061;29;20591;-83
2022/05/28 00:54:34;;;;;;;2.38;1.40;;;;;;;16.94;66.69;95850.97;4956515;28;20239;-84
2022/05/28 00:57:02;;;;;;;1.65;1.30;;;;;;;16.87;67.27;95845.84;4956531;29;20208;-84
2022/05/28 00:59:28;;;;;;;2.10;1.52;;;;;;;16.91;66.89;95848.81;4957329;28;20475;-84
2022/05/28 01:02:01;;;;;;;1.50;1.40;;;;;;;16.89;67.02;95840.44;4954770;28;20209;-83
2022/05/28 01:04:38;;;;;;;1.65;1.52;;;;;;;16.89;66.49;95850.84;4957343;28;20739;-84
2022/05/28 01:07:17;;;;;;;1.60;1.50;;;;;;;16.90;66.91;95844.63;4956466;29;20220;-83
2022/05/28 01:09:53;;;;;;;1.40;1.30;;;;;;;16.90;66.73;95849.84;4957506;29;20205;-85
2022/05/28 01:12:29;;;;;;;1.42;1.33;;;;;;;16.91;66.67;95841.03;4956000;28;20792;-85
2022/05/28 01:15:01;;;;;;;1.40;1.30;;;;;;;16.83;67.52;95842.06;4956110;29;20229;-85
2022/05/28 01:17:32;;;;;;;1.50;1.40;;;;;;;16.79;67.46;95840.88;4956289;29;20248;-84
2022/05/28 01:20:06;;;;;;;1.92;1.50;;;;;;;16.85;67.03;95839.25;4955924;29;20215;-85
2022/05/28 01:22:44;;;;;;;1.52;1.42;;;;;;;16.79;67.51;95833.06;4956116;28;20373;-86
2022/05/28 01:25:18;;;;;;;1.98;1.50;;;;;;;16.79;67.23;95834.88;4955945;29;20204;-85
2022/05/28 01:27:49;;;;;;;3.13;1.40;;;;;;;16.83;66.97;95834.25;4955599;29;20228;-85
2022/05/28 01:30:17;;;;;;;1.65;1.25;;;;;;;16.89;67.16;95835.22;4954880;29;20201;-85
2022/05/28 01:32:45;;;;;;;1.45;1.35;;;;;;;16.86;67.26;95836.44;4955712;28;20225;-85
2022/05/28 01:35:16;;;;;;;1.50;1.40;;;;;;;16.84;66.96;95827.25;4956769;28;20197;-86
2022/05/28 01:37:44;;;;;;;2.30;1.30;;;;;;;16.87;66.97;95827.63;4955810;29;20287;-83
2022/05/28 01:40:12;;;;;;;1.55;1.45;;;;;;;16.86;66.67;95830.44;4956840;29;20201;-85
2022/05/28 01:42:44;;;;;;;2.22;1.50;;;;;;;16.79;67.58;95829.69;4955173;28;20302;-84
2022/05/28 01:45:14;;;;;;;1.60;1.50;;;;;;;16.79;67.54;95834.88;4956227;28;20208;-85
2022/05/28 01:47:43;;;;;;;1.60;1.35;;;;;;;16.76;67.52;95828.28;4955240;29;20235;-85
2022/05/28 01:50:13;;;;;;;1.65;1.48;;;;;;;16.74;67.85;95816.53;4956068;29;20245;-84
2022/05/28 01:52:40;;;;;;;1.65;1.40;;;;;;;16.73;67.11;95825.31;4954222;28;20232;-84
2022/05/28 01:55:09;;;;;;;1.50;1.40;;;;;;;16.79;67.05;95827.06;4955265;29;20197;-82
2022/05/28 01:57:35;;;;;;;2.25;1.63;;;;;;;16.77;66.65;95823.88;4953584;29;20224;-83
2022/05/28 02:00:02;;;;;;;1.70;1.50;;;;;;;16.71;66.16;95832.53;4954779;29;20201;-83
2022/05/28 02:02:30;;;;;;;1.52;1.42;;;;;;;16.70;66.02;95829.13;4953412;28;20684;-83
2022/05/28 02:04:57;;;;;;;1.92;1.65;;;;;;;16.65;66.66;95828.16;4955273;28;20228;-85
2022/05/28 02:07:23;;;;;;;1.90;1.50;;;;;;;16.66;66.31;95833.16;4953372;29;20294;-84
2022/05/28 02:09:53;;;;;;;1.42;1.33;;;;;;;16.69;65.72;95832.75;4953931;29;20625;-83
2022/05/28 02:12:26;;;;;;;1.60;1.50;;;;;;;16.68;65.76;95822.56;4954060;28;20208;-83
2022/05/28 02:15:03;;;;;;;4.10;1.60;;;;;;;16.62;65.90;95831.94;4953940;28;20248;-85
2022/05/28 02:17:37;;;;;;;2.72;1.88;;;;;;;16.67;66.08;95826.94;4953668;29;20201;-85
2022/05/28 02:20:15;;;;;;;1.80;1.70;;;;;;;16.62;66.61;95826.75;4944740;29;20211;-81
2022/05/28 02:22:50;;;;;;;2.22;1.80;;;;;;;16.63;65.85;95811.94;4952701;28;20232;-82
2022/05/28 02:25:21;;;;;;;1.60;1.50;;;;;;;16.64;65.90;95808.38;4955257;29;20196;-84
2022/05/28 02:27:51;;;;;;;2.47;1.73;;;;;;;16.61;66.05;95806.94;4953831;29;20224;-83
2022/05/28 02:30:18;;;;;;;2.28;1.70;;;;;;;16.60;66.15;95810.53;4954068;28;20204;-83
2022/05/28 02:32:46;;;;;;;2.15;1.80;;;;;;;16.62;66.33;95807.75;4953502;28;20703;-84
2022/05/28 02:35:13;;;;;;;2.25;1.55;;;;;;;16.59;66.44;95812.34;4954560;28;20211;-84
2022/05/28 02:37:40;;;;;;;2.15;1.70;;;;;;;16.59;66.39;95806.34;4953366;29;20259;-85
2022/05/28 02:40:07;;;;;;;1.75;1.65;;;;;;;16.54;66.86;95812.19;4954145;28;20209;-85
2022/05/28 02:42:34;;;;;;;1.88;1.60;;;;;;;16.49;67.10;95811.22;4953221;28;20679;-84
2022/05/28 02:45:00;;;;;;;2.30;1.92;;;;;;;16.43;66.76;95807.63;4955050;29;20201;-82
2022/05/28 02:47:27;;;;;;;3.00;1.80;;;;;;;16.40;67.40;95807.25;4952831;29;20295;-85
2022/05/28 02:49:56;;;;;;;1.85;1.75;;;;;;;16.43;66.98;95806.84;4954006;29;20264;-85
2022/05/28 02:52:23;;;;;;;2.33;2.00;;;;;;;16.47;66.66;95808.81;4953756;28;20553;-82
2022/05/28 02:54:50;;;;;;;2.20;1.83;;;;;;;16.43;66.92;95805.03;4954689;29;20221;-85
2022/05/28 02:57:16;;;;;;;2.15;1.65;;;;;;;16.42;67.32;95810.44;4954166;29;20264;-84
2022/05/28 02:59:43;;;;;;;3.50;2.13;;;;;;;16.41;67.55;95808.84;4954256;29;20208;-86
2022/05/28 03:02:09;;;;;;;2.10;1.83;;;;;;;16.40;67.00;95815.84;4954268;28;20209;-82
2022/05/28 03:04:36;;;;;;;2.90;2.00;;;;;;;16.40;67.82;95815.03;4954036;29;20630;-85
2022/05/28 03:07:04;;;;;;;2.15;1.80;;;;;;;16.41;67.10;95807.03;4953856;28;20228;-85
2022/05/28 03:09:31;;;;;;;2.42;1.95;;;;;;;16.42;67.43;95800.03;4952878;29;20231;-83
2022/05/28 03:11:57;;;;;;;3.05;2.00;;;;;;;16.47;66.89;95810.63;4954070;29;20200;-84
2022/05/28 03:14:24;;;;;;;2.63;1.92;;;;;;;16.45;67.11;95810.81;4953081;28;20237;-82
2022/05/28 03:16:50;;;;;;;2.95;1.95;;;;;;;16.43;67.22;95809.44;4952986;29;20217;-84
2022/05/28 03:19:17;;;;;;;3.33;1.90;;;;;;;16.40;67.39;95815.84;4952976;29;20850;-84
2022/05/28 03:21:43;;;;;;;3.70;2.00;;;;;;;16.42;67.62;95819.03;4953820;29;20204;-84
2022/05/28 03:24:11;;;;;;;2.08;1.90;;;;;;;16.34;68.13;95819.28;4952633;28;20232;-82
2022/05/28 03:26:38;;;;;;;2.80;2.13;;;;;;;16.33;67.57;95822.09;4956696;28;20292;-83
2022/05/28 03:29:05;;;;;;;2.65;2.40;;;;;;;16.30;67.67;95819.91;4957797;29;20237;-82
2022/05/28 03:31:32;;;;;;;3.67;1.98;;;;;;;16.32;67.31;95821.28;4957559;28;20205;-84
2022/05/28 03:33:59;;;;;;;3.58;2.30;;;;;;;16.37;67.28;95820.66;4956494;28;20229;-84
2022/05/28 03:36:27;;;;;;;2.20;2.00;;;;;;;16.43;66.77;95822.44;4956509;28;20201;-83
2022/05/28 03:38:54;;;;;;;3.38;2.30;;;;;;;16.45;66.87;95821.22;4956380;29;20238;-83
2022/05/28 03:41:22;;;;;;;2.50;2.10;;;;;;;16.34;67.65;95818.50;4957029;28;20197;-84
2022/05/28 03:43:49;;;;;;;3.90;2.20;;;;;;;16.22;68.33;95826.09;4954865;28;20235;-83
2022/05/28 03:46:25;;;;;;;2.20;2.00;;;;;;;16.21;67.28;95822.72;4955585;29;20236;-84
2022/05/28 03:48:54;;;;;;;2.50;2.30;;;;;;;16.26;67.55;95829.09;4954944;28;20239;-83
2022/05/28 03:51:21;;;;;;;2.20;2.10;;;;;;;16.21;67.74;95830.50;4954949;29;20205;-84
2022/05/28 03:53:47;;;;;;;2.97;2.60;;;;;;;16.16;66.98;95822.53;4955738;28;20228;-85
2022/05/28 03:56:14;;;;;;;3.45;2.67;;;;;;;16.12;65.93;95834.34;4955400;29;20213;-84
2022/05/28 03:58:41;;;;;;;4.78;2.50;;;;;;;16.10;66.16;95836.34;4954172;28;20205;-85
2022/05/28 04:01:08;;;;;;;3.80;2.10;;;;;;;16.09;66.72;95832.16;4953086;29;20197;-84
2022/05/28 04:03:35;;;;;;;2.45;2.25;;;;;;;16.00;66.83;95840.34;4954622;28;20236;-83
2022/05/28 04:06:02;;;;;;;4.65;2.50;;;;;;;16.07;66.70;95841.16;4955144;29;20205;-81
2022/05/28 04:08:29;;;;;;;5.22;2.97;;;;;;;16.03;66.67;95842.56;4954052;28;20319;-84
2022/05/28 04:10:56;;;;;;;4.22;2.42;;;;;;;15.92;67.39;95843.19;4953025;28;20208;-84
2022/05/28 04:13:22;;;;;;;5.93;2.50;;;;;;;15.84;66.64;95837.19;4955376;28;20237;-86
2022/05/28 04:15:51;;;;;;;3.15;2.70;;;;;;;15.78;66.44;95835.41;4954438;29;20260;-87
2022/05/28 04:18:17;;;;;;;2.80;2.25;;;;;;;15.83;66.78;95842.59;4956134;28;20209;-84
2022/05/28 04:20:44;;;;;;;2.83;2.50;;;;;;;15.89;65.28;95850.38;4954307;29;20261;-86
2022/05/28 04:23:11;;;;;;;4.25;3.00;;;;;;;15.95;65.48;95853.97;4956057;28;20252;-87
2022/05/28 04:25:38;;;;;;;3.83;2.47;;;;;;;16.03;65.44;95851.16;4953585;29;20212;-87
2022/05/28 04:28:04;;;;;;;5.30;2.60;;;;;;;16.02;65.29;95846.94;4955761;29;20696;-87
2022/05/28 04:30:31;;;;;;;2.88;2.40;;;;;;;16.03;64.16;95858.13;4953878;29;20208;-87
2022/05/28 04:32:59;;;;;;;2.65;2.42;;;;;;;15.96;63.93;95863.38;4954861;28;20236;-85
2022/05/28 04:35:25;;;;;;;3.45;2.50;;;;;;;15.80;63.11;95856.78;4953455;29;20271;-86
2022/05/28 04:37:52;;;;;;;4.20;2.50;;;;;;;15.66;63.15;95860.38;4954502;28;20604;-86
2022/05/28 04:40:18;;;;;;;4.68;2.58;;;;;;;15.63;62.69;95862.59;4954063;28;20271;-85
2022/05/28 04:42:44;;;;;;;4.43;2.50;;;;;;;15.57;61.81;95866.81;4919546;28;1027929;-87
2022/05/28 04:45:11;;;;;;;5.50;2.90;;;;;;;15.51;60.55;95868.38;4955896;29;20275;-86
2022/05/28 04:47:38;;;;;;;4.28;2.30;;;;;;;15.50;59.33;95868.56;4954044;28;20201;-87
2022/05/28 04:50:07;;;;;;;4.13;2.40;;;;;;;15.39;59.08;95867.38;4955156;28;20224;-85
2022/05/28 04:52:34;;;;;;;5.32;2.70;;;;;;;15.43;58.52;95872.94;4954511;28;20232;-89
2022/05/28 04:55:06;;;;;;;4.50;2.40;;;;;;;15.32;58.60;95865.75;4963008;28;20220;-86
2022/05/28 04:57:33;;;;;;;4.30;2.53;;;;;;;15.31;58.56;95875.34;4955494;29;20197;-86
2022/05/28 04:59:59;;;;;;;4.65;2.40;;;;;;;15.24;59.07;95871.13;4954204;28;20197;-87
2022/05/28 05:02:27;;;;;;;4.28;2.50;;;;;;;15.21;59.35;95865.34;4955409;28;20207;-85
2022/05/28 05:04:56;;;;;;;6.07;2.60;;;;;;;15.31;59.41;95872.75;4954550;29;20229;-87
2022/05/28 05:07:26;;;;;;;3.92;2.63;;;;;;;15.34;59.40;95879.34;4950429;29;20204;-86
2022/05/28 05:09:52;;;;;;;5.53;2.60;;;;;;;15.40;59.14;95883.72;4954292;29;20228;-85
2022/05/28 05:12:20;;;;;;;4.13;2.25;;;;;;;15.35;58.92;95878.34;4955062;28;20201;-86
2022/05/28 05:14:49;;;;;;;3.20;2.08;;;;;;;15.30;58.68;95878.13;4955260;29;20240;-85
2022/05/28 05:17:15;;;;;;;4.18;2.08;;;;;;;15.40;58.12;95874.13;4954877;29;20667;-86
2022/05/28 05:19:41;;;;;;;5.50;2.33;;;;;;;15.39;57.71;95874.34;4953932;29;20197;-86
2022/05/28 05:22:10;;;;;;;4.10;2.20;;;;;;;15.29;57.84;95873.94;4955034;28;20288;-86
2022/05/28 05:24:41;;;;;;;7.75;2.30;;;;;;;15.20;57.04;95865.56;4953469;28;20224;-87
2022/05/28 05:27:09;;;;;;;5.60;2.60;;;;;;;15.31;57.29;95869.34;4948134;29;20200;-85
2022/05/28 05:29:36;;;;;;;5.07;2.50;;;;;;;15.21;57.67;95869.72;4954387;29;20884;-86
2022/05/28 05:32:05;;;;;;;5.15;2.42;;;;;;;15.42;56.86;95873.94;4955824;29;20200;-87
2022/05/28 05:34:33;;;;;;;5.43;2.15;;;;;;;15.44;55.97;95877.94;4946716;28;20236;-87
2022/05/28 05:37:00;;;;;;;3.35;2.08;;;;;;;15.42;56.74;95877.31;4955931;29;20815;-85
2022/05/28 05:39:26;;;;;;;5.05;2.25;;;;;;;15.49;56.15;95877.34;4954400;29;20208;-87
2022/05/28 05:42:04;;;;;;;4.90;2.33;;;;;;;15.48;54.32;95879.13;4955029;29;20190;-85
2022/05/28 05:44:30;;;;;;;4.82;1.98;;;;;;;15.37;54.87;95876.34;4954222;28;20245;-87
2022/05/28 05:46:57;;;;;;;3.45;2.08;;;;;;;15.27;54.31;95873.34;4955401;28;20196;-86
2022/05/28 05:49:23;;;;;;;7.88;4.75;;;;;;;15.24;54.32;95882.31;4951660;28;20312;-85
2022/05/28 05:51:51;;;;;;;9.43;7.28;;;;;;;15.16;55.10;95877.31;4954768;28;20201;-87
2022/05/28 05:54:19;;;;;;;6.68;3.90;;;;;;;15.28;55.08;95872.34;4953737;28;20272;-85
2022/05/28 05:56:46;;;;;;;3.08;2.17;;;;;;;15.25;55.35;95877.91;4953985;28;20584;-87
2022/05/28 05:59:13;;;;;;;4.20;2.85;;;;;;;15.18;57.93;95880.53;4954514;28;20197;-86
2022/05/28 06:01:40;;;;;;;4.32;2.00;;;;;;;15.30;55.98;95873.75;4955053;29;20263;-86
2022/05/28 06:04:09;;;;;;;6.75;2.10;;;;;;;15.27;54.76;95871.53;4953093;28;20315;-86
2022/05/28 06:06:36;;;;;;;3.15;1.75;;;;;;;15.32;56.56;95874.34;4954701;29;20201;-87
2022/05/28 06:09:02;;;;;;;13.43;11.70;;;;;;;15.45;55.57;95876.13;4952001;28;20227;-85
2022/05/28 06:11:29;;;;;;;9.00;6.43;;;;;;;15.46;53.31;95878.53;4954493;28;20231;-85
2022/05/28 06:13:55;;;;;;;12.68;7.85;;;;;;;15.56;53.20;95869.59;4951760;28;20233;-85
2022/05/28 06:16:23;;;;;;;3.55;2.13;;;;;;;15.60;52.91;95868.97;4954390;28;20205;-86
2022/05/28 06:18:49;;;;;;;4.05;1.63;;;;;;;15.61;51.88;95873.16;4952037;29;20222;-85
2022/05/28 06:21:18;;;;;;;3.95;2.30;;;;;;;15.52;51.26;95867.38;4953692;29;20688;-87
2022/05/28 06:23:44;;;;;;;2.25;1.70;;;;;;;15.50;53.22;95868.56;4952380;28;20244;-87
2022/05/28 06:26:12;;;;;;;5.35;2.03;;;;;;;15.74;51.44;95862.78;4947575;28;20213;-85
2022/05/28 06:28:39;;;;;;;5.15;2.10;;;;;;;15.81;52.71;95868.75;4953697;29;20229;-86
2022/05/28 06:31:07;;;;;;;5.57;2.30;;;;;;;15.89;50.57;95871.16;4947051;28;20188;-86
2022/05/28 06:33:37;;;;;;;3.13;1.70;;;;;;;15.98;50.54;95868.31;4950434;28;20315;-87
2022/05/28 06:36:05;;;;;;;4.63;2.20;;;;;;;16.00;49.73;95872.31;4948825;29;20209;-87
2022/05/28 06:38:33;;;;;;;4.47;1.73;;;;;;;16.12;50.34;95872.53;4951721;29;20200;-87
2022/05/28 06:41:00;;;;;;;4.28;1.98;;;;;;;16.05;50.05;95874.31;4951960;29;20209;-87
2022/05/28 06:43:27;;;;;;;7.70;2.22;;;;;;;16.07;50.71;95875.72;4951975;28;20320;-87
2022/05/28 06:45:54;;;;;;;4.22;2.42;;;;;;;16.08;50.79;95871.31;4952544;29;20284;-86
2022/05/28 06:48:21;;;;;;;5.25;2.30;;;;;;;16.00;49.50;95874.91;4951498;28;20201;-87
2022/05/28 06:51:04;;;;;;;3.35;1.77;;;;;;;16.13;50.36;95864.53;4952522;28;20201;-86
2022/05/28 06:53:33;;;;;;;4.07;2.17;;;;;;;16.23;50.45;95871.88;4950786;28;20235;-89
2022/05/28 06:55:59;;;;;;;5.30;2.25;;;;;;;16.30;51.05;95858.88;4947702;29;20209;-87
2022/05/28 06:58:32;;;;;;;5.70;2.15;;;;;;;16.41;49.48;95855.63;4951692;29;20231;-88
2022/05/28 07:00:59;;;;;;;7.05;2.45;;;;;;;16.30;48.47;95859.66;4953365;28;20220;-86
2022/05/28 07:03:28;;;;;;;4.60;2.15;;;;;;;16.27;49.59;95859.28;4955813;28;20232;-86
2022/05/28 07:05:56;;;;;;;5.35;2.70;;;;;;;16.45;49.52;95855.00;4958264;29;20291;-87
2022/05/28 07:08:24;;;;;;;4.40;1.80;;;;;;;16.47;52.08;95865.19;4957360;29;20212;-86
2022/05/28 07:10:52;;;;;;;6.40;2.08;;;;;;;16.55;51.04;95865.75;4957034;29;20668;-88
2022/05/28 07:13:20;;;;;;;4.43;2.30;;;;;;;16.65;49.47;95867.16;4962429;28;20243;-87
2022/05/28 07:15:46;;;;;;;4.65;2.58;;;;;;;16.49;48.94;95865.81;4960643;29;20669;-87
2022/05/28 07:18:13;;;;;;;4.53;2.10;;;;;;;16.54;49.01;95871.97;4959759;29;20256;-89
2022/05/28 07:20:40;;;;;;;5.18;1.88;;;;;;;16.52;47.91;95866.19;4957829;29;20661;-89
2022/05/28 07:23:11;;;;;;;3.08;1.88;;;;;;;16.54;47.41;95878.97;4957417;28;20232;-88
2022/05/28 07:25:38;;;;;;;5.00;2.30;;;;;;;16.52;47.91;95878.38;4959368;29;20248;-89
2022/05/28 07:28:24;;;;;;;4.68;2.38;;;;;;;16.57;48.56;95884.53;4959173;28;20201;-87
2022/05/28 07:30:51;;;;;;;4.05;2.50;;;;;;;16.68;47.56;95869.34;4957324;29;20700;-86
2022/05/28 07:33:17;;;;;;;7.82;4.82;;;;;;;16.88;48.26;95875.25;4957085;28;20279;-88
2022/05/28 07:35:47;;;;;;;4.93;3.10;;;;;;;16.81;47.31;95869.28;4959191;29;20211;-88
2022/05/28 07:38:15;;;;;;;4.32;2.40;;;;;;;16.71;48.52;95877.53;4957601;28;20215;-86
2022/05/28 07:40:41;;;;;;;5.45;2.20;;;;;;;16.63;48.51;95864.75;4955988;29;20209;-86
2022/05/28 07:43:08;;;;;;;5.55;2.40;;;;;;;16.77;47.82;95863.69;4957017;28;20235;-88
2022/05/28 07:45:39;;;;;;;5.78;2.58;;;;;;;16.77;48.57;95866.28;4958844;29;20399;-88
2022/05/28 07:48:07;;;;;;;4.13;1.95;;;;;;;16.85;48.08;95860.84;4956905;29;20237;-89
2022/05/28 07:50:42;;;;;;;2.85;2.00;;;;;;;16.98;48.63;95859.97;4958191;28;20225;-87
2022/05/28 07:56:12;;;;;;;5.43;2.40;;;;;;;17.92;52.49;95872.09;4160536;26;20596;-86
2022/05/28 07:58:39;;;;;;;4.60;2.10;;;;;;;17.95;46.04;95866.47;4964242;28;20212;-89
2022/05/28 08:01:06;;;;;;;7.18;2.20;;;;;;;17.71;46.01;95859.47;4967880;28;20204;-87
2022/05/28 08:03:33;;;;;;;4.40;2.17;;;;;;;17.55;45.45;95866.78;4965803;28;20742;-87
2022/05/28 08:05:59;;;;;;;6.32;2.15;;;;;;;17.30;45.84;95862.59;4964706;28;20691;-88
2022/05/28 08:08:28;;;;;;;5.35;2.00;;;;;;;17.29;45.40;95858.38;4964372;28;20200;-88
2022/05/28 08:10:55;;;;;;;4.75;2.00;;;;;;;17.30;46.31;95862.59;4961679;28;20252;-88
2022/05/28 08:13:24;;;;;;;5.35;1.95;;;;;;;17.42;45.98;95863.50;4966028;28;20236;-87
2022/05/28 08:15:54;;;;;;;4.93;2.13;;;;;;;17.56;44.97;95864.97;4950670;28;20200;-87
2022/05/28 08:18:24;;;;;;;4.97;2.17;;;;;;;17.74;44.03;95862.44;4966862;28;20322;-87
2022/05/28 08:23:38;;;;;;;4.43;2.15;;;;;;;17.93;42.96;95873.69;4954904;28;20232;-87
2022/05/28 08:26:05;;;;;;;5.07;1.90;;;;;;;18.11;42.50;95873.72;4954431;28;20232;-87
2022/05/28 08:28:36;;;;;;;4.85;1.90;;;;;;;18.21;43.21;95874.03;4955285;28;20249;-87
2022/05/28 08:31:02;;;;;;;6.50;2.40;;;;;;;18.14;41.85;95859.44;4962111;28;20225;-88
2022/05/28 08:33:29;;;;;;;7.38;4.00;;;;;;;18.30;42.98;95867.50;4958812;28;20240;-91
2022/05/28 08:35:56;;;;;;;7.93;5.75;;;;;;;18.33;42.72;95863.66;4961087;28;20196;-88
2022/05/28 08:38:24;;;;;;;6.25;4.18;;;;;;;18.06;43.02;95867.56;4961586;28;20208;-89
2022/05/28 08:40:56;;;;;;;4.07;2.15;;;;;;;18.19;41.11;95857.78;4956680;28;20207;-88
2022/05/28 08:43:27;;;;;;;3.05;1.70;;;;;;;18.44;41.40;95864.75;4955471;28;20232;-90
2022/05/28 08:45:55;;;;;;;4.10;1.92;;;;;;;18.55;39.24;95862.19;4956911;28;20292;-87
2022/05/28 08:48:26;;;;;;;6.05;2.05;;;;;;;18.62;39.33;95872.59;4958282;28;20669;-86
2022/05/28 08:51:00;;;;;;;4.13;1.80;;;;;;;18.78;39.41;95864.16;4959948;28;20225;-87
2022/05/28 08:53:30;;;;;;;3.05;1.35;;;;;;;18.90;37.81;95858.97;4933380;28;20724;-87
2022/05/28 08:55:59;;;;;;;2.05;1.30;;;;;;;19.07;38.48;95859.13;4949447;28;20216;-87
2022/05/28 08:58:29;;;;;;;3.38;1.58;;;;;;;19.04;37.09;95860.41;4964160;28;20212;-84
2022/05/28 09:01:05;;;;;;;3.42;1.45;;;;;;;19.13;36.95;95864.28;4972582;28;20215;-84
2022/05/28 09:03:43;;;;;;;4.85;1.77;;;;;;;19.19;38.36;95873.81;4966455;28;20235;-84
2022/05/28 09:06:15;;;;;;;2.80;1.17;;;;;;;19.18;37.40;95861.78;4953240;28;20216;-84
2022/05/28 09:08:44;;;;;;;2.60;1.60;;;;;;;19.20;36.98;95859.75;4935267;28;20212;-85
2022/05/28 09:11:16;;;;;;;2.95;1.52;;;;;;;19.27;37.80;95862.25;4933481;29;20236;-85
2022/05/28 09:13:46;;;;;;;3.78;1.10;;;;;;;19.13;34.64;95861.66;4933257;28;20237;-85
2022/05/28 09:16:22;;;;;;;1.20;0.95;;;;;;;19.25;34.62;95864.28;4933873;29;20233;-84
2022/05/28 09:18:50;;;;;;;2.72;1.30;;;;;;;19.08;34.94;95868.56;4933444;29;20692;-84
2022/05/28 09:21:17;;;;;;;3.88;2.08;;;;;;;19.34;35.17;95862.97;4933245;29;20224;-83
2022/05/28 09:23:47;;;;;;;2.80;1.50;;;;;;;19.61;35.86;95861.56;4932082;28;20242;-84
2022/05/28 09:26:16;;;;;;;2.28;1.52;;;;;;;19.75;35.10;95856.13;4933760;29;20325;-84
2022/05/28 09:28:56;;;;;;;2.88;1.05;;;;;;;19.83;35.92;95847.91;4933591;29;20212;-84
2022/05/28 09:31:48;;;;;;;2.78;1.30;;;;;;;19.79;35.35;95854.63;4933196;29;20222;-84
2022/05/28 09:34:29;;;;;;;3.13;2.10;;;;;;;19.89;34.46;95865.31;4932765;28;20237;-85
2022/05/28 09:37:05;;;;;;;2.13;1.30;;;;;;;19.90;34.38;95856.44;4933315;29;20235;-85
2022/05/28 09:39:42;;;;;;;2.03;1.20;;;;;;;20.03;34.21;95850.97;4933281;29;20205;-84
2022/05/28 09:42:17;;;;;;;2.25;1.10;;;;;;;19.87;35.57;95852.47;4932159;28;20213;-85
2022/05/28 09:44:59;;;;;;;2.00;1.20;;;;;;;19.78;35.04;95850.44;4933228;29;20233;-85
2022/05/28 09:47:26;;;;;;;2.65;1.15;;;;;;;19.76;34.37;95849.88;4933166;29;20202;-85
2022/05/28 09:49:55;;;;;;;2.60;1.17;;;;;;;19.98;36.66;95846.47;4933066;29;20288;-83
2022/05/28 09:52:25;;;;;;;5.55;3.88;;;;;;;20.26;35.37;95853.56;4932289;28;20209;-84
2022/05/28 09:54:50;;;;;;;3.03;1.85;;;;;;;20.35;34.30;95843.56;4932789;29;20226;-85
2022/05/28 09:57:26;;;;;;;2.15;1.83;;;;;;;20.33;34.98;95843.78;4932888;29;20232;-85
2022/05/28 09:59:59;;;;;;;2.53;1.50;;;;;;;20.57;35.51;95854.22;4932866;29;20205;-85
2022/05/28 10:02:29;;;;;;;2.97;1.30;;;;;;;20.82;34.58;95848.66;4931942;28;20892;-84
2022/05/28 10:04:58;;;;;;;1.52;1.20;;;;;;;20.98;35.26;95850.50;4949695;29;20905;-85
2022/05/28 10:07:31;;;;;;;2.45;1.35;;;;;;;20.88;34.08;95843.28;4944230;28;20212;-85
2022/05/28 10:09:58;;;;;;;2.58;1.40;;;;;;;20.83;34.59;95837.16;4933208;29;20229;-85
2022/05/28 10:12:27;;;;;;;2.15;1.13;;;;;;;20.85;35.40;95838.50;4932026;28;20205;-85
2022/05/28 10:15:01;;;;;;;3.25;1.17;;;;;;;21.12;34.74;95848.41;4932655;29;20229;-85
2022/05/28 10:17:31;;;;;;;2.58;1.00;;;;;;;21.14;33.27;95846.34;4932653;29;20300;-84
2022/05/28 10:20:00;;;;;;;3.17;1.33;;;;;;;21.11;33.66;95839.78;4932684;29;20198;-85
2022/05/28 10:22:29;;;;;;;2.13;1.20;;;;;;;21.04;34.05;95841.72;4931788;28;20669;-85
2022/05/28 10:24:59;;;;;;;2.03;1.00;;;;;;;21.17;32.13;95836.19;4932820;29;20919;-85
2022/05/28 10:27:31;;;;;;;1.63;1.00;;;;;;;21.23;33.56;95837.91;4932496;29;20209;-85
2022/05/28 10:30:02;;;;;;;2.33;1.02;;;;;;;21.41;32.49;95822.97;4932480;29;20226;-85
2022/05/28 10:32:34;;;;;;;3.10;1.17;;;;;;;21.31;31.74;95823.63;4925546;28;20730;-84
2022/05/28 10:35:06;;;;;;;3.17;1.17;;;;;;;21.02;32.28;95815.78;4943832;28;20277;-84
2022/05/28 10:37:33;;;;;;;1.50;1.08;;;;;;;21.13;33.11;95839.53;4932429;29;20210;-85
2022/05/28 10:40:08;;;;;;;1.85;1.10;;;;;;;21.24;33.36;95820.34;4932258;29;20220;-85
2022/05/28 10:42:35;;;;;;;3.92;1.30;;;;;;;21.44;33.54;95833.78;4931865;28;20229;-84
2022/05/28 10:45:01;;;;;;;1.90;1.10;;;;;;;21.38;34.76;95832.09;4932130;29;20228;-85
2022/05/28 10:47:46;;;;;;;1.83;1.20;;;;;;;21.36;35.56;95821.06;4932457;29;20217;-85
2022/05/28 10:50:19;;;;;;;2.58;1.30;;;;;;;20.91;34.28;95834.97;4932018;29;20232;-85
2022/05/28 10:53:00;;;;;;;3.15;1.20;;;;;;;20.57;35.13;95828.06;4932037;28;20225;-85
2022/05/28 10:55:37;;;;;;;8.20;6.95;;;;;;;20.10;35.65;95829.94;4932459;29;20221;-85
2022/05/28 10:58:27;;;;;;;5.38;4.15;;;;;;;20.37;34.96;95823.22;4932040;29;20589;-84
2022/05/28 11:01:00;;;;;;;4.22;1.35;;;;;;;20.80;35.41;95825.31;4926854;29;20709;-85
2022/05/28 11:03:57;;;;;;;4.22;1.25;;;;;;;21.06;35.42;95829.19;4936240;28;20243;-85
2022/05/28 11:06:39;;;;;;;2.75;1.60;;;;;;;21.25;34.34;95825.38;4951462;28;20593;-85
2022/05/28 11:09:16;;;;;;;5.00;1.10;;;;;;;21.55;34.04;95808.53;4932195;29;20205;-85
2022/05/28 11:12:01;;;;;;;1.45;1.10;;;;;;;21.67;33.06;95806.63;4931598;29;20232;-84
2022/05/28 11:14:47;;;;;;;2.85;1.55;;;;;;;21.74;33.52;95809.88;4931591;28;20237;-83
2022/05/28 11:17:27;;;;;;;2.08;1.20;;;;;;;21.65;32.53;95804.22;4932125;29;20201;-85
2022/05/28 11:20:11;;;;;;;2.53;1.88;;;;;;;21.78;33.25;95803.09;4931966;29;20205;-84
2022/05/28 11:22:47;;;;;;;4.28;3.80;;;;;;;21.86;32.89;95789.59;4932074;28;20694;-84
2022/05/28 11:25:21;;;;;;;9.32;8.40;;;;;;;21.94;32.51;95783.13;4931825;29;20669;-84
2022/05/28 11:28:03;;;;;;;2.88;1.85;;;;;;;21.67;33.39;95796.94;4931994;29;20206;-84
2022/05/28 11:30:36;;;;;;;2.75;1.40;;;;;;;21.89;32.95;95785.69;4931586;29;20698;-84
2022/05/28 11:33:11;;;;;;;2.22;1.20;;;;;;;21.75;32.96;95784.44;4931338;28;20221;-85
2022/05/28 11:35:43;;;;;;;1.17;1.00;;;;;;;21.74;32.46;95785.50;4932617;29;20205;-84
2022/05/28 11:38:18;;;;;;;1.83;1.30;;;;;;;21.74;33.88;95781.03;4931999;29;20248;-85
2022/05/28 11:41:01;;;;;;;1.90;1.38;;;;;;;21.76;33.35;95776.31;4931701;29;20216;-84
2022/05/28 11:43:31;;;;;;;2.15;1.10;;;;;;;21.59;32.85;95786.84;4932085;28;20241;-84
2022/05/28 11:46:05;;;;;;;1.92;1.02;;;;;;;21.69;33.06;95779.13;4932324;29;20209;-85
2022/05/28 11:51:35;;;;;;;2.70;1.40;;;;;;;21.77;33.44;95774.50;4935088;29;20350;-85
2022/05/28 11:54:08;;;;;;;1.30;1.13;;;;;;;21.87;32.69;95779.88;4934892;28;20608;-85